Карточка аэропорта UMKK

Внимание!
Информация на этой странице в стадии наполнения.
Если вы не увидели какой-то информации, или заметили неточность - пожалуйста сообщите нам!
Спасибо!
Команда RU-STAFF
Название аэропортаХраброво
Название аэропорта (англ.)Khrabrovo
Превышение43 ft. (13.1 m.)
Координаты54°53.4', 20°35.55'
Высота перехода4000ft
Эшелон переходаFL50 (QNH>=1013hPa); FL60 (QNH<1013hPa); FL50 (QNH<977hPa);
Коды ответчика6620-6637
Зона ОрВДКалининград РПИ (UMKK)
Данные METARUMKK 282300Z 32003MPS 9999 OVC005 03/03 Q1022 R24/290095 NOSIG RMK QBB150 OBST OBSC QFE766/1021
Проноз погоды (TAF)UMKK 281956Z 2821/2921 30003G08MPS 6000 BKN004 OVC016 TEMPO 2821/2824 OVC003 BECMG 2900/2902 VRB01MPS FEW006 BKN011 TEMPO 2902/2909 BKN006 BECMG 2903/2905 17003G08MPS BECMG 2909/2910 BKN016 BECMG 2915/2917 12005G10MPS
NOTAMshow/hide NOTAM
AWOS   TABLE

Информация о ВПП

ВПП Длина ВПП (м.) Покрытие Курс ВПП Частота ILS
063350Асфальтобетон60110.3
243350Асфальтобетон240109.5

Диспетчерские позиции

Позывной Наименование органа УВД Частота
UMKK_APPКалининград-Подход126.0
UMKK_TWRКалининград-Вышка127.2



Спутниковое изображение